createdAt,value
2018-01-15T00:01:28.022Z,20.35
2018-01-15T00:03:57.272Z,27.98
2018-01-15T00:06:27.529Z,26.25
2018-01-15T00:08:55.908Z,26.70
2018-01-15T00:11:24.297Z,26.65
2018-01-15T00:13:53.574Z,22.27
2018-01-15T00:16:22.901Z,23.98
2018-01-15T00:18:51.253Z,21.80
2018-01-15T00:21:19.613Z,23.15
2018-01-15T00:23:49.025Z,27.80
2018-01-15T00:26:17.316Z,24.30
2018-01-15T00:28:45.668Z,22.40
2018-01-15T00:31:17.462Z,28.80
2018-01-15T00:33:45.864Z,24.83
2018-01-15T00:36:14.214Z,24.15
2018-01-15T00:38:44.517Z,25.42
2018-01-15T00:41:13.721Z,23.40
2018-01-15T00:43:44.395Z,25.08
2018-01-15T00:46:13.859Z,24.60
2018-01-15T00:48:42.242Z,26.35
2018-01-15T00:51:12.547Z,21.00
2018-01-15T00:53:40.847Z,21.77
2018-01-15T00:56:10.171Z,21.62
2018-01-15T00:58:40.362Z,21.37
2018-01-15T01:01:09.667Z,17.95
2018-01-15T01:03:38.066Z,24.80
2018-01-15T01:06:06.438Z,23.52
2018-01-15T01:08:34.854Z,24.67
2018-01-15T01:11:03.184Z,21.05
2018-01-15T01:13:31.676Z,25.90
2018-01-15T01:16:01.220Z,20.55
2018-01-15T01:18:30.482Z,20.77
2018-01-15T01:20:59.196Z,19.75
2018-01-15T01:23:31.242Z,22.73
2018-01-15T01:25:59.658Z,21.25
2018-01-15T01:28:28.932Z,20.17
2018-01-15T01:30:57.303Z,24.05
2018-01-15T01:33:29.138Z,21.20
2018-01-15T01:35:59.282Z,22.30
2018-01-15T01:38:29.523Z,32.40
2018-01-15T01:40:57.893Z,21.52
2018-01-15T01:43:26.268Z,22.60
2018-01-15T01:45:54.714Z,25.00
2018-01-15T01:48:23.990Z,23.67
2018-01-15T01:50:53.233Z,20.92
2018-01-15T01:53:22.623Z,26.25
2018-01-15T01:55:50.971Z,19.10
2018-01-15T01:58:19.316Z,20.20
2018-01-15T02:00:47.789Z,19.40
2018-01-15T02:03:16.124Z,22.15
2018-01-15T02:05:47.525Z,18.23
2018-01-15T02:08:16.820Z,25.08
2018-01-15T02:10:46.117Z,21.85
2018-01-15T02:13:14.605Z,20.25
2018-01-15T02:15:47.197Z,23.00
2018-01-15T02:18:15.576Z,20.70
2018-01-15T02:20:43.950Z,22.10
2018-01-15T02:23:14.260Z,19.85
2018-01-15T02:25:42.591Z,22.10
2018-01-15T02:28:10.940Z,20.77
2018-01-15T02:30:39.348Z,22.62
2018-01-15T02:33:08.632Z,16.73
2018-01-15T02:35:38.307Z,19.15
2018-01-15T02:38:06.594Z,20.37
2018-01-15T02:40:38.982Z,22.15
2018-01-15T02:43:07.356Z,25.80
2018-01-15T02:45:35.783Z,21.48
2018-01-15T02:48:08.742Z,21.33
2018-01-15T02:50:42.897Z,23.05
2018-01-15T02:53:12.577Z,20.77
2018-01-15T02:55:47.074Z,22.42
2018-01-15T02:58:16.385Z,18.60
2018-01-15T03:00:44.762Z,19.50
2018-01-15T03:03:13.149Z,22.20
2018-01-15T03:05:41.531Z,21.50
2018-01-15T03:08:15.426Z,18.83
2018-01-15T03:10:44.733Z,18.42
2018-01-15T03:13:14.029Z,21.83
2018-01-15T03:15:46.101Z,18.23
2018-01-15T03:18:15.403Z,20.35
2018-01-15T03:20:49.626Z,26.23
2018-01-15T03:23:18.926Z,28.10
2018-01-15T03:25:50.379Z,24.20
2018-01-15T03:28:18.762Z,18.70
2018-01-15T03:30:47.020Z,20.35
2018-01-15T03:33:18.887Z,21.50
2018-01-15T03:35:47.250Z,20.65
2018-01-15T03:38:15.664Z,19.45
2018-01-15T03:40:44.960Z,22.30
2018-01-15T03:43:13.318Z,16.83
2018-01-15T03:45:46.024Z,23.85
2018-01-15T03:48:14.390Z,23.08
2018-01-15T03:50:43.693Z,26.75
2018-01-15T03:53:12.070Z,22.30
2018-01-15T03:55:40.561Z,25.08
2018-01-15T03:58:08.855Z,20.25
2018-01-15T04:00:38.161Z,21.33
2018-01-15T04:03:06.909Z,24.65
2018-01-15T04:05:39.907Z,19.83
2018-01-15T04:08:10.350Z,19.52
2018-01-15T04:10:38.730Z,19.40
2018-01-15T04:13:08.954Z,19.50
2018-01-15T04:15:41.019Z,22.48
2018-01-15T04:18:09.481Z,19.05
2018-01-15T04:20:37.786Z,19.92
2018-01-15T04:23:07.064Z,20.23
2018-01-15T04:25:37.712Z,18.70
2018-01-15T04:28:08.132Z,20.85
2018-01-15T04:30:36.390Z,17.85
2018-01-15T04:33:05.094Z,24.05
2018-01-15T04:35:33.435Z,22.67
2018-01-15T04:38:02.817Z,19.40
2018-01-15T04:40:31.203Z,31.48
2018-01-15T04:42:59.749Z,19.30
2018-01-15T04:45:28.098Z,19.50
2018-01-15T04:47:56.413Z,18.87
2018-01-15T04:50:25.275Z,20.27
2018-01-15T04:52:53.964Z,20.83
2018-01-15T04:55:22.314Z,19.62
2018-01-15T04:57:50.644Z,16.85
2018-01-15T05:00:18.972Z,19.70
2018-01-15T05:02:48.337Z,17.60
2018-01-15T05:05:16.737Z,21.70
2018-01-15T05:07:45.563Z,17.37
2018-01-15T05:10:15.475Z,22.23
2018-01-15T05:12:43.879Z,20.35
2018-01-15T05:15:14.104Z,17.87
2018-01-15T05:17:43.482Z,20.12
2018-01-15T05:20:12.712Z,20.30
2018-01-15T05:22:41.097Z,23.30
2018-01-15T05:25:09.457Z,21.73
2018-01-15T05:27:39.694Z,21.33
2018-01-15T05:30:10.328Z,19.62
2018-01-15T05:32:38.612Z,20.08
2018-01-15T05:35:07.051Z,17.75
2018-01-15T05:37:36.311Z,20.17
2018-01-15T05:40:04.700Z,20.25
2018-01-15T05:42:35.059Z,21.12
2018-01-15T05:45:04.206Z,19.37
2018-01-15T05:47:34.435Z,17.77
2018-01-15T05:50:03.762Z,21.30
2018-01-15T05:52:32.094Z,21.48
2018-01-15T05:55:00.481Z,19.87
2018-01-15T05:57:31.014Z,15.98
2018-01-15T06:00:01.244Z,21.40
2018-01-15T06:02:30.530Z,20.12
2018-01-15T06:05:02.000Z,17.70
2018-01-15T06:07:30.350Z,18.27
2018-01-15T06:09:58.769Z,19.90
2018-01-15T06:12:27.123Z,18.05
2018-01-15T06:14:56.429Z,25.67
2018-01-15T06:17:25.759Z,18.70
2018-01-15T06:19:54.109Z,19.98
2018-01-15T06:22:23.455Z,16.98
2018-01-15T06:24:55.231Z,22.70
2018-01-15T06:27:24.514Z,19.75
2018-01-15T06:29:53.825Z,21.40
2018-01-15T06:32:22.149Z,18.45
2018-01-15T06:34:50.553Z,19.08
2018-01-15T06:37:19.886Z,21.15
2018-01-15T06:39:51.028Z,21.00
2018-01-15T06:42:19.352Z,21.33
2018-01-15T06:44:47.770Z,18.00
2018-01-15T06:47:18.091Z,22.50
2018-01-15T06:49:46.347Z,22.15
2018-01-15T06:52:17.022Z,21.42
2018-01-15T06:54:46.170Z,17.87
2018-01-15T06:57:16.424Z,21.50
2018-01-15T06:59:44.885Z,19.10
2018-01-15T07:02:20.605Z,18.10
2018-01-15T07:04:49.843Z,19.15
2018-01-15T07:07:19.145Z,18.95
2018-01-15T07:09:51.253Z,22.67
2018-01-15T07:12:24.495Z,19.30
2018-01-15T07:14:56.302Z,19.35
2018-01-15T07:17:26.861Z,18.67
2018-01-15T07:19:57.363Z,21.73
2018-01-15T07:22:27.904Z,18.62
2018-01-15T07:25:00.238Z,22.33
2018-01-15T07:27:28.691Z,21.17
2018-01-15T07:29:56.991Z,18.30
2018-01-15T07:32:25.396Z,22.13
2018-01-15T07:35:03.774Z,19.35
2018-01-15T07:37:36.409Z,21.08
2018-01-15T07:40:04.984Z,23.33
2018-01-15T07:42:33.330Z,19.42
2018-01-15T07:45:01.700Z,19.00
2018-01-15T07:47:31.030Z,25.08
2018-01-15T07:49:59.495Z,17.55
2018-01-15T07:52:27.808Z,17.75
2018-01-15T08:00:51.261Z,20.77
2018-01-15T08:03:25.282Z,20.95
2018-01-15T08:08:46.274Z,18.55
2018-01-15T08:11:15.893Z,21.90
2018-01-15T08:13:48.479Z,25.23
2018-01-15T08:16:20.683Z,24.50
2018-01-15T08:18:51.085Z,25.27
2018-01-15T08:21:20.135Z,23.10
2018-01-15T08:23:50.711Z,22.43
2018-01-15T08:26:20.790Z,28.85
2018-01-15T08:28:49.400Z,24.80
2018-01-15T08:31:18.770Z,30.83
2018-01-15T08:33:47.395Z,22.77
2018-01-15T08:36:16.171Z,28.25
2018-01-15T08:38:53.986Z,27.10
2018-01-15T08:41:22.919Z,26.43
2018-01-15T08:43:51.248Z,22.60
2018-01-15T08:46:23.415Z,32.75
2018-01-15T08:48:52.571Z,27.93
2018-01-15T08:51:22.187Z,30.60
2018-01-15T08:53:50.549Z,28.00
2018-01-15T08:56:22.079Z,30.30
2018-01-15T08:58:54.393Z,29.00
2018-01-15T09:01:22.762Z,32.57
2018-01-15T09:03:51.178Z,24.23
2018-01-15T09:06:19.541Z,29.83
2018-01-15T09:08:47.902Z,27.47
2018-01-15T09:11:18.436Z,29.30
2018-01-15T09:13:46.827Z,26.83
2018-01-15T09:16:15.211Z,25.00
2018-01-15T09:18:43.707Z,25.83
2018-01-15T09:21:16.092Z,27.67
2018-01-15T09:23:44.400Z,25.20
2018-01-15T09:26:14.077Z,28.87
2018-01-15T10:22:53.791Z,32.33
2018-01-15T10:25:23.100Z,28.03
2018-01-15T10:27:53.448Z,29.93
2018-01-15T10:30:24.641Z,34.30
2018-01-15T10:32:58.277Z,35.97
2018-01-15T10:35:26.587Z,36.20
2018-01-15T10:37:54.944Z,26.43
2018-01-15T10:40:26.176Z,31.53
2018-01-15T10:45:54.279Z,30.77
2018-01-15T10:48:23.319Z,30.77
2018-01-15T10:50:58.108Z,29.47
2018-01-15T10:53:27.185Z,29.53
2018-01-15T10:55:55.482Z,28.40
2018-01-15T10:58:26.128Z,37.83
2018-01-15T11:00:54.510Z,25.47
2018-01-15T11:03:22.801Z,28.90
2018-01-15T11:05:51.073Z,30.20
2018-01-15T11:08:19.519Z,31.37
2018-01-15T11:10:47.798Z,36.07
2018-01-15T11:13:16.072Z,30.77
2018-01-15T11:15:44.371Z,29.13
2018-01-15T11:18:13.447Z,30.13
2018-01-15T11:20:41.740Z,29.33
2018-01-15T11:23:10.416Z,28.17
2018-01-15T11:25:53.491Z,29.70
2018-01-15T11:28:26.426Z,29.57
2018-01-15T11:30:55.085Z,31.53
2018-01-15T11:33:24.079Z,31.77
2018-01-15T11:35:52.388Z,28.63
2018-01-15T11:38:20.667Z,26.00
2018-01-15T11:40:48.950Z,33.23
2018-01-15T11:43:17.218Z,29.33
2018-01-15T11:45:46.268Z,26.37
2018-01-15T11:48:14.552Z,22.97
2018-01-15T11:50:42.831Z,28.80
2018-01-15T11:53:11.214Z,24.67
2018-01-15T11:55:39.626Z,55.10
2018-01-15T11:58:07.912Z,24.37
2018-01-15T12:00:36.191Z,24.63
2018-01-15T12:03:04.527Z,25.47
2018-01-15T12:05:33.078Z,27.10
2018-01-15T12:08:02.124Z,25.40
2018-01-15T12:10:31.156Z,26.27
2018-01-15T12:12:59.454Z,22.53
2018-01-15T12:15:29.204Z,21.63
2018-01-15T12:17:57.493Z,24.83
2018-01-15T12:20:25.748Z,44.13
2018-01-15T12:22:54.001Z,24.57
2018-01-15T12:25:22.312Z,26.60
2018-01-15T12:27:50.621Z,23.83
2018-01-15T12:30:18.928Z,24.53
2018-01-15T12:32:48.008Z,22.17
2018-01-15T12:35:16.258Z,22.93
2018-01-15T12:37:44.705Z,21.87
2018-01-15T12:40:13.357Z,26.33
2018-01-15T12:42:45.423Z,23.57
2018-01-15T12:45:15.048Z,21.23
2018-01-15T12:47:43.317Z,17.80
2018-01-15T12:56:07.510Z,54.17
2018-01-15T12:58:37.164Z,23.10
2018-01-15T13:01:06.379Z,13.40
2018-01-15T13:03:34.709Z,14.20
2018-01-15T13:06:07.997Z,17.40
2018-01-15T13:11:41.914Z,17.60
2018-01-15T13:14:10.303Z,14.70
2018-01-15T13:16:38.676Z,13.60
2018-01-15T13:19:10.755Z,17.27
2018-01-15T13:21:39.101Z,12.73
2018-01-15T13:24:07.494Z,17.47
2018-01-15T13:26:39.281Z,11.23
2018-01-15T13:29:07.630Z,12.30
2018-01-15T13:31:36.034Z,11.43
2018-01-15T13:34:07.779Z,10.80
2018-01-15T13:36:36.158Z,10.00
2018-01-15T13:39:05.552Z,12.60
2018-01-15T13:41:35.988Z,11.13
2018-01-15T13:44:04.680Z,12.00
2018-01-15T13:46:33.086Z,11.23
2018-01-15T13:49:01.428Z,10.07
2018-01-15T13:51:33.194Z,8.80
2018-01-15T13:54:01.560Z,10.73
2018-01-15T13:56:29.935Z,8.67
2018-01-15T13:59:04.853Z,8.50
2018-01-15T14:01:33.160Z,8.13
2018-01-15T14:04:01.568Z,7.27
2018-01-15T14:06:29.932Z,8.10
2018-01-15T14:09:02.315Z,9.30
2018-01-15T14:11:30.683Z,7.73
2018-01-15T14:13:59.051Z,6.30
2018-01-15T14:16:27.475Z,6.13
2018-01-15T14:18:57.945Z,6.27
2018-01-15T14:21:31.692Z,9.17
2018-01-15T14:23:59.946Z,12.00
2018-01-15T14:26:32.397Z,12.83
2018-01-15T14:29:01.620Z,8.77
2018-01-15T14:31:30.030Z,7.00
2018-01-15T14:33:58.393Z,7.90
2018-01-15T14:36:29.830Z,7.53
2018-01-15T14:39:00.072Z,6.87
2018-01-15T14:41:28.414Z,7.43
2018-01-15T14:44:11.193Z,5.53
2018-01-15T14:46:39.636Z,9.10
2018-01-15T14:49:08.016Z,9.53
2018-01-15T14:51:40.408Z,7.60
2018-01-15T14:54:12.507Z,7.97
2018-01-15T14:56:40.860Z,9.73
2018-01-15T14:59:12.634Z,23.47
2018-01-15T15:01:41.003Z,17.50
2018-01-15T15:04:09.359Z,8.30
2018-01-15T15:06:41.436Z,11.23
2018-01-15T15:09:13.485Z,12.90
2018-01-15T15:11:41.887Z,9.53
2018-01-15T15:14:13.325Z,9.40
2018-01-15T15:16:47.823Z,11.47
2018-01-15T15:19:17.225Z,11.87
2018-01-15T15:21:45.565Z,11.17
2018-01-15T15:24:13.931Z,11.80
2018-01-15T15:26:46.000Z,7.87
2018-01-15T15:29:14.379Z,8.97
2018-01-15T15:31:46.124Z,17.17
2018-01-15T15:34:15.447Z,10.53
2018-01-15T15:36:43.790Z,13.00
2018-01-15T15:39:13.107Z,12.80
2018-01-15T15:41:41.514Z,10.57
2018-01-15T15:44:09.861Z,16.90
2018-01-15T15:46:41.951Z,13.10
2018-01-15T15:49:10.354Z,13.87
2018-01-15T15:51:42.083Z,13.00
2018-01-15T15:54:10.456Z,13.40
2018-01-15T15:56:38.820Z,16.03
2018-01-15T15:59:10.922Z,11.93
2018-01-15T16:01:42.372Z,10.70
2018-01-15T16:04:14.441Z,13.83
2018-01-15T16:06:45.859Z,10.70
2018-01-15T16:09:14.269Z,10.00
2018-01-15T16:11:47.842Z,11.17
2018-01-15T16:14:19.915Z,12.13
2018-01-15T16:16:51.975Z,12.73
2018-01-15T16:19:20.376Z,9.00
2018-01-15T16:22:06.446Z,18.30
2018-01-15T16:24:34.958Z,11.07
2018-01-15T16:27:04.261Z,41.40
2018-01-15T16:29:32.628Z,12.77
2018-01-15T16:32:01.094Z,10.57
2018-01-15T16:34:29.391Z,11.27
2018-01-15T16:36:57.755Z,9.43
2018-01-15T16:39:30.148Z,9.30
2018-01-15T16:41:58.499Z,36.60
2018-01-15T16:44:26.886Z,10.07
2018-01-15T16:46:55.294Z,13.03
2018-01-15T16:49:26.721Z,10.20
2018-01-15T16:51:59.194Z,11.53
2018-01-15T16:54:28.706Z,10.47
2018-01-15T16:56:58.034Z,10.37
2018-01-15T16:59:26.404Z,11.33
2018-01-15T17:01:54.770Z,8.03
2018-01-15T17:04:23.183Z,8.17
2018-01-15T17:06:51.523Z,8.33
2018-01-15T17:09:19.906Z,11.70
2018-01-15T17:11:48.302Z,8.40
2018-01-15T17:14:16.663Z,8.13
2018-01-15T17:16:49.367Z,10.10
2018-01-15T17:19:17.718Z,9.03
2018-01-15T17:21:49.202Z,9.20
2018-01-15T17:24:21.250Z,7.43
2018-01-15T17:26:49.639Z,10.77
2018-01-15T17:29:18.934Z,10.23
2018-01-15T17:31:47.311Z,8.80
2018-01-15T17:34:15.787Z,6.67
2018-01-15T17:36:46.223Z,7.60
2018-01-15T17:39:14.602Z,6.90
2018-01-15T17:41:46.368Z,8.03
2018-01-15T17:44:14.764Z,6.17
2018-01-15T19:13:14.296Z,4.87
2018-01-15T19:15:42.555Z,2.03
2018-01-15T19:18:11.142Z,2.17
2018-01-15T19:20:39.443Z,2.27
2018-01-15T19:23:07.715Z,1.63
2018-01-15T19:25:35.995Z,2.27
2018-01-15T19:28:04.259Z,2.10
2018-01-15T19:51:44.230Z,2.70
2018-01-15T20:12:19.823Z,2.00
2018-01-15T20:32:52.932Z,1.43
2018-01-15T20:53:29.127Z,1.13
2018-01-15T21:14:03.493Z,1.13
2018-01-15T21:34:38.438Z,3.40
2018-01-15T21:55:11.934Z,1.30
2018-01-15T22:15:48.333Z,0.97
2018-01-15T22:36:23.334Z,0.93
2018-01-15T22:57:03.868Z,2.03
2018-01-15T23:17:37.873Z,6.40
2018-01-15T23:38:15.345Z,2.93
2018-01-15T23:58:48.598Z,1.07
